sensor_id;sensor_type;location;lat;lon;timestamp;temperature;humidity
12370;DHT22;6249;52.128;9.986;2023-03-14T00:01:17;12.60;99.90
12370;DHT22;6249;52.128;9.986;2023-03-14T00:04:38;12.60;99.90
12370;DHT22;6249;52.128;9.986;2023-03-14T00:08:01;12.80;99.90
12370;DHT22;6249;52.128;9.986;2023-03-14T00:11:21;12.80;99.90
12370;DHT22;6249;52.128;9.986;2023-03-14T00:14:44;12.40;99.90
12370;DHT22;6249;52.128;9.986;2023-03-14T00:18:05;12.50;99.90
12370;DHT22;6249;52.128;9.986;2023-03-14T00:21:28;12.40;99.90
12370;DHT22;6249;52.128;9.986;2023-03-14T00:24:50;12.40;99.90
12370;DHT22;6249;52.128;9.986;2023-03-14T00:28:16;12.40;99.90
12370;DHT22;6249;52.128;9.986;2023-03-14T00:31:36;12.50;99.90
12370;DHT22;6249;52.128;9.986;2023-03-14T00:34:59;12.30;99.90
12370;DHT22;6249;52.128;9.986;2023-03-14T00:38:23;12.40;99.90
12370;DHT22;6249;52.128;9.986;2023-03-14T00:41:46;12.50;99.90
12370;DHT22;6249;52.128;9.986;2023-03-14T00:45:08;12.50;99.90
12370;DHT22;6249;52.128;9.986;2023-03-14T00:48:29;12.60;99.90
12370;DHT22;6249;52.128;9.986;2023-03-14T00:51:50;12.70;99.90
12370;DHT22;6249;52.128;9.986;2023-03-14T00:55:14;12.60;99.90
12370;DHT22;6249;52.128;9.986;2023-03-14T00:58:34;12.60;99.90
12370;DHT22;6249;52.128;9.986;2023-03-14T01:01:55;12.60;99.90
12370;DHT22;6249;52.128;9.986;2023-03-14T01:05:16;13.40;99.90
12370;DHT22;6249;52.128;9.986;2023-03-14T01:08:36;12.60;99.90
12370;DHT22;6249;52.128;9.986;2023-03-14T01:11:57;12.40;99.90
12370;DHT22;6249;52.128;9.986;2023-03-14T01:15:18;12.60;99.90
12370;DHT22;6249;52.128;9.986;2023-03-14T01:18:40;12.40;99.90
12370;DHT22;6249;52.128;9.986;2023-03-14T01:22:00;12.40;99.90
12370;DHT22;6249;52.128;9.986;2023-03-14T01:25:21;12.50;99.90
12370;DHT22;6249;52.128;9.986;2023-03-14T01:28:42;12.40;99.90
12370;DHT22;6249;52.128;9.986;2023-03-14T01:32:03;12.50;99.90
12370;DHT22;6249;52.128;9.986;2023-03-14T01:35:23;12.40;99.90
12370;DHT22;6249;52.128;9.986;2023-03-14T01:38:44;12.40;99.90
12370;DHT22;6249;52.128;9.986;2023-03-14T01:42:07;12.40;99.90
12370;DHT22;6249;52.128;9.986;2023-03-14T01:49:29;12.30;99.90
12370;DHT22;6249;52.128;9.986;2023-03-14T01:52:51;12.20;99.90
12370;DHT22;6249;52.128;9.986;2023-03-14T01:56:14;12.20;99.90
12370;DHT22;6249;52.128;9.986;2023-03-14T01:59:37;12.50;99.90
12370;DHT22;6249;52.128;9.986;2023-03-14T02:03:09;12.10;99.90
12370;DHT22;6249;52.128;9.986;2023-03-14T02:06:45;12.20;99.90
12370;DHT22;6249;52.128;9.986;2023-03-14T02:10:07;12.00;99.90
12370;DHT22;6249;52.128;9.986;2023-03-14T02:13:29;12.00;99.90
12370;DHT22;6249;52.128;9.986;2023-03-14T02:16:50;12.00;99.90
12370;DHT22;6249;52.128;9.986;2023-03-14T02:27:31;11.90;99.90
12370;DHT22;6249;52.128;9.986;2023-03-14T02:30:54;11.90;99.90
12370;DHT22;6249;52.128;9.986;2023-03-14T02:34:14;12.60;99.90
12370;DHT22;6249;52.128;9.986;2023-03-14T02:41:32;11.80;99.90
12370;DHT22;6249;52.128;9.986;2023-03-14T02:48:30;11.80;99.90
12370;DHT22;6249;52.128;9.986;2023-03-14T02:51:55;11.80;99.90
12370;DHT22;6249;52.128;9.986;2023-03-14T02:55:20;11.90;99.90
12370;DHT22;6249;52.128;9.986;2023-03-14T02:58:41;11.80;99.90
12370;DHT22;6249;52.128;9.986;2023-03-14T03:02:02;11.80;99.90
12370;DHT22;6249;52.128;9.986;2023-03-14T03:05:22;11.80;99.90
12370;DHT22;6249;52.128;9.986;2023-03-14T03:08:43;12.60;99.90
12370;DHT22;6249;52.128;9.986;2023-03-14T03:12:03;11.90;99.90
12370;DHT22;6249;52.128;9.986;2023-03-14T03:15:24;11.90;99.90
12370;DHT22;6249;52.128;9.986;2023-03-14T03:18:49;11.80;99.90
12370;DHT22;6249;52.128;9.986;2023-03-14T03:22:15;11.80;99.90
12370;DHT22;6249;52.128;9.986;2023-03-14T03:25:35;11.80;99.90
12370;DHT22;6249;52.128;9.986;2023-03-14T03:28:56;11.80;99.90
12370;DHT22;6249;52.128;9.986;2023-03-14T03:32:16;11.80;99.90
12370;DHT22;6249;52.128;9.986;2023-03-14T03:35:48;11.90;99.90
12370;DHT22;6249;52.128;9.986;2023-03-14T03:39:10;11.90;99.90
12370;DHT22;6249;52.128;9.986;2023-03-14T03:42:30;11.80;99.90
12370;DHT22;6249;52.128;9.986;2023-03-14T03:45:55;12.00;99.90
12370;DHT22;6249;52.128;9.986;2023-03-14T03:49:16;11.80;99.90
12370;DHT22;6249;52.128;9.986;2023-03-14T03:52:36;12.60;99.90
12370;DHT22;6249;52.128;9.986;2023-03-14T03:55:59;11.60;99.90
12370;DHT22;6249;52.128;9.986;2023-03-14T03:59:20;11.80;99.90
12370;DHT22;6249;52.128;9.986;2023-03-14T04:02:41;11.60;99.90
12370;DHT22;6249;52.128;9.986;2023-03-14T04:06:06;11.60;99.90
12370;DHT22;6249;52.128;9.986;2023-03-14T04:09:27;11.60;99.90
12370;DHT22;6249;52.128;9.986;2023-03-14T04:12:48;11.70;99.90
12370;DHT22;6249;52.128;9.986;2023-03-14T04:16:15;11.60;99.90
12370;DHT22;6249;52.128;9.986;2023-03-14T04:19:37;11.60;99.90
12370;DHT22;6249;52.128;9.986;2023-03-14T04:22:57;11.40;99.90
12370;DHT22;6249;52.128;9.986;2023-03-14T04:26:18;10.70;99.90
12370;DHT22;6249;52.128;9.986;2023-03-14T04:29:38;10.30;99.90
12370;DHT22;6249;52.128;9.986;2023-03-14T04:32:59;10.20;99.90
12370;DHT22;6249;52.128;9.986;2023-03-14T04:36:22;10.00;99.90
12370;DHT22;6249;52.128;9.986;2023-03-14T04:39:42;10.00;99.90
12370;DHT22;6249;52.128;9.986;2023-03-14T04:43:03;9.80;99.90
12370;DHT22;6249;52.128;9.986;2023-03-14T04:46:24;10.20;99.90
12370;DHT22;6249;52.128;9.986;2023-03-14T04:49:47;9.70;99.90
12370;DHT22;6249;52.128;9.986;2023-03-14T04:53:07;9.90;99.90
12370;DHT22;6249;52.128;9.986;2023-03-14T04:56:28;9.90;99.90
12370;DHT22;6249;52.128;9.986;2023-03-14T04:59:51;10.60;99.90
12370;DHT22;6249;52.128;9.986;2023-03-14T05:03:11;9.60;99.90
12370;DHT22;6249;52.128;9.986;2023-03-14T05:06:32;9.60;99.90
12370;DHT22;6249;52.128;9.986;2023-03-14T05:09:53;10.40;99.90
12370;DHT22;6249;52.128;9.986;2023-03-14T05:13:13;10.30;99.90
12370;DHT22;6249;52.128;9.986;2023-03-14T05:16:37;9.90;99.90
12370;DHT22;6249;52.128;9.986;2023-03-14T05:19:59;9.90;99.90
12370;DHT22;6249;52.128;9.986;2023-03-14T05:23:20;9.90;99.90
12370;DHT22;6249;52.128;9.986;2023-03-14T05:26:45;10.00;99.90
12370;DHT22;6249;52.128;9.986;2023-03-14T05:30:06;10.80;99.90
12370;DHT22;6249;52.128;9.986;2023-03-14T05:33:27;9.80;99.90
12370;DHT22;6249;52.128;9.986;2023-03-14T05:36:48;9.90;99.90
12370;DHT22;6249;52.128;9.986;2023-03-14T05:40:09;10.10;99.90
12370;DHT22;6249;52.128;9.986;2023-03-14T05:43:29;9.70;99.90
12370;DHT22;6249;52.128;9.986;2023-03-14T05:46:53;10.50;99.90
12370;DHT22;6249;52.128;9.986;2023-03-14T05:50:16;9.70;99.90
12370;DHT22;6249;52.128;9.986;2023-03-14T05:53:37;10.10;99.90
12370;DHT22;6249;52.128;9.986;2023-03-14T05:56:57;9.70;99.90
12370;DHT22;6249;52.128;9.986;2023-03-14T06:00:18;9.70;99.90
12370;DHT22;6249;52.128;9.986;2023-03-14T06:03:42;9.60;99.90
12370;DHT22;6249;52.128;9.986;2023-03-14T06:07:02;9.90;99.90
12370;DHT22;6249;52.128;9.986;2023-03-14T06:10:25;10.10;99.90
12370;DHT22;6249;52.128;9.986;2023-03-14T06:13:46;9.60;99.90
12370;DHT22;6249;52.128;9.986;2023-03-14T06:17:06;9.60;99.90
12370;DHT22;6249;52.128;9.986;2023-03-14T06:20:27;9.60;99.90
12370;DHT22;6249;52.128;9.986;2023-03-14T06:23:48;9.60;99.90
12370;DHT22;6249;52.128;9.986;2023-03-14T06:27:10;10.30;99.90
12370;DHT22;6249;52.128;9.986;2023-03-14T06:30:31;10.40;99.90
12370;DHT22;6249;52.128;9.986;2023-03-14T06:33:52;9.90;99.90
12370;DHT22;6249;52.128;9.986;2023-03-14T06:37:13;10.00;99.90
12370;DHT22;6249;52.128;9.986;2023-03-14T06:40:33;10.20;99.90
12370;DHT22;6249;52.128;9.986;2023-03-14T06:43:54;10.20;99.90
12370;DHT22;6249;52.128;9.986;2023-03-14T06:47:14;11.80;99.90
12370;DHT22;6249;52.128;9.986;2023-03-14T06:50:37;10.00;99.90
12370;DHT22;6249;52.128;9.986;2023-03-14T06:53:58;11.10;99.90
12370;DHT22;6249;52.128;9.986;2023-03-14T06:57:18;10.10;99.90
12370;DHT22;6249;52.128;9.986;2023-03-14T07:00:39;10.00;99.90
12370;DHT22;6249;52.128;9.986;2023-03-14T07:04:00;9.90;99.90
12370;DHT22;6249;52.128;9.986;2023-03-14T07:07:20;9.80;99.90
12370;DHT22;6249;52.128;9.986;2023-03-14T07:10:44;9.80;99.90
12370;DHT22;6249;52.128;9.986;2023-03-14T07:14:05;10.00;99.90
12370;DHT22;6249;52.128;9.986;2023-03-14T07:17:25;10.00;99.90
12370;DHT22;6249;52.128;9.986;2023-03-14T07:20:46;10.00;99.90
12370;DHT22;6249;52.128;9.986;2023-03-14T07:24:07;10.00;99.90
12370;DHT22;6249;52.128;9.986;2023-03-14T07:27:27;10.10;99.90
12370;DHT22;6249;52.128;9.986;2023-03-14T07:30:48;10.30;99.90
12370;DHT22;6249;52.128;9.986;2023-03-14T07:34:09;10.30;99.90
12370;DHT22;6249;52.128;9.986;2023-03-14T07:37:30;10.50;99.90
12370;DHT22;6249;52.128;9.986;2023-03-14T07:40:50;10.60;99.90
12370;DHT22;6249;52.128;9.986;2023-03-14T07:44:11;10.70;99.90
12370;DHT22;6249;52.128;9.986;2023-03-14T07:47:31;11.00;99.90
12370;DHT22;6249;52.128;9.986;2023-03-14T07:50:55;11.30;99.90
12370;DHT22;6249;52.128;9.986;2023-03-14T07:54:16;11.40;99.90
12370;DHT22;6249;52.128;9.986;2023-03-14T07:57:37;11.40;99.90
12370;DHT22;6249;52.128;9.986;2023-03-14T08:00:58;11.50;99.90
12370;DHT22;6249;52.128;9.986;2023-03-14T08:04:19;11.60;99.90
12370;DHT22;6249;52.128;9.986;2023-03-14T08:07:39;11.70;99.90
12370;DHT22;6249;52.128;9.986;2023-03-14T08:11:04;11.90;99.90
12370;DHT22;6249;52.128;9.986;2023-03-14T08:14:25;12.00;99.90
12370;DHT22;6249;52.128;9.986;2023-03-14T08:17:50;12.00;99.90
12370;DHT22;6249;52.128;9.986;2023-03-14T08:21:11;12.00;99.90
12370;DHT22;6249;52.128;9.986;2023-03-14T08:24:36;12.10;99.90
12370;DHT22;6249;52.128;9.986;2023-03-14T08:27:57;12.20;99.90
12370;DHT22;6249;52.128;9.986;2023-03-14T08:31:18;12.20;99.90
12370;DHT22;6249;52.128;9.986;2023-03-14T08:34:41;12.30;99.90
12370;DHT22;6249;52.128;9.986;2023-03-14T08:38:03;12.40;99.90
12370;DHT22;6249;52.128;9.986;2023-03-14T08:41:29;12.40;99.90
12370;DHT22;6249;52.128;9.986;2023-03-14T08:44:51;12.30;99.90
12370;DHT22;6249;52.128;9.986;2023-03-14T08:48:11;12.40;99.90
12370;DHT22;6249;52.128;9.986;2023-03-14T08:51:32;12.20;99.90
12370;DHT22;6249;52.128;9.986;2023-03-14T08:54:53;12.30;99.90
12370;DHT22;6249;52.128;9.986;2023-03-14T08:58:13;12.40;99.90
12370;DHT22;6249;52.128;9.986;2023-03-14T09:01:34;12.60;99.90
12370;DHT22;6249;52.128;9.986;2023-03-14T09:04:54;12.70;99.90
12370;DHT22;6249;52.128;9.986;2023-03-14T09:08:15;12.70;99.90
12370;DHT22;6249;52.128;9.986;2023-03-14T09:11:36;12.50;99.90
12370;DHT22;6249;52.128;9.986;2023-03-14T09:14:58;12.60;99.90
12370;DHT22;6249;52.128;9.986;2023-03-14T09:18:19;12.60;99.90
12370;DHT22;6249;52.128;9.986;2023-03-14T09:21:40;12.50;99.90
12370;DHT22;6249;52.128;9.986;2023-03-14T09:25:03;12.40;99.90
12370;DHT22;6249;52.128;9.986;2023-03-14T09:28:25;12.40;99.90
12370;DHT22;6249;52.128;9.986;2023-03-14T09:31:48;12.40;99.90
12370;DHT22;6249;52.128;9.986;2023-03-14T09:35:11;12.40;99.90
12370;DHT22;6249;52.128;9.986;2023-03-14T09:38:31;12.40;99.90
12370;DHT22;6249;52.128;9.986;2023-03-14T09:41:55;12.40;99.90
12370;DHT22;6249;52.128;9.986;2023-03-14T09:45:35;12.30;99.90
12370;DHT22;6249;52.128;9.986;2023-03-14T09:48:59;12.40;99.90
12370;DHT22;6249;52.128;9.986;2023-03-14T09:52:47;12.50;99.90
12370;DHT22;6249;52.128;9.986;2023-03-14T09:56:35;12.90;99.90
12370;DHT22;6249;52.128;9.986;2023-03-14T10:00:04;13.10;99.90
12370;DHT22;6249;52.128;9.986;2023-03-14T10:03:34;13.30;99.90
12370;DHT22;6249;52.128;9.986;2023-03-14T10:06:55;13.10;99.90
12370;DHT22;6249;52.128;9.986;2023-03-14T10:10:27;13.00;99.90
12370;DHT22;6249;52.128;9.986;2023-03-14T10:14:10;13.20;99.90
12370;DHT22;6249;52.128;9.986;2023-03-14T10:17:42;13.50;99.90
12370;DHT22;6249;52.128;9.986;2023-03-14T10:21:22;13.60;99.90
12370;DHT22;6249;52.128;9.986;2023-03-14T10:24:54;14.20;99.90
12370;DHT22;6249;52.128;9.986;2023-03-14T10:28:25;14.70;99.90
12370;DHT22;6249;52.128;9.986;2023-03-14T10:31:54;14.90;99.90
12370;DHT22;6249;52.128;9.986;2023-03-14T10:38:36;14.20;99.90
12370;DHT22;6249;52.128;9.986;2023-03-14T10:42:10;14.00;99.90
12370;DHT22;6249;52.128;9.986;2023-03-14T10:49:05;13.80;99.90
12370;DHT22;6249;52.128;9.986;2023-03-14T10:52:29;13.70;99.90
12370;DHT22;6249;52.128;9.986;2023-03-14T10:55:52;13.70;99.90
12370;DHT22;6249;52.128;9.986;2023-03-14T10:59:14;13.50;99.90
12370;DHT22;6249;52.128;9.986;2023-03-14T11:03:11;13.60;99.90
12370;DHT22;6249;52.128;9.986;2023-03-14T11:06:39;13.80;99.90
12370;DHT22;6249;52.128;9.986;2023-03-14T11:21:54;14.60;99.90
12370;DHT22;6249;52.128;9.986;2023-03-14T11:28:52;14.20;99.90
12370;DHT22;6249;52.128;9.986;2023-03-14T11:36:07;13.60;99.90
12370;DHT22;6249;52.128;9.986;2023-03-14T11:39:59;13.30;99.90
12370;DHT22;6249;52.128;9.986;2023-03-14T11:43:28;12.90;99.90
12370;DHT22;6249;52.128;9.986;2023-03-14T11:50:27;12.50;99.90
12370;DHT22;6249;52.128;9.986;2023-03-14T11:57:22;12.90;99.90
12370;DHT22;6249;52.128;9.986;2023-03-14T12:00:44;12.80;99.90
12370;DHT22;6249;52.128;9.986;2023-03-14T12:04:13;11.60;99.90
12370;DHT22;6249;52.128;9.986;2023-03-14T12:15:00;8.50;99.90
12370;DHT22;6249;52.128;9.986;2023-03-14T12:18:27;8.10;99.90
12370;DHT22;6249;52.128;9.986;2023-03-14T12:25:23;7.60;99.90
12370;DHT22;6249;52.128;9.986;2023-03-14T12:28:50;7.50;99.90
12370;DHT22;6249;52.128;9.986;2023-03-14T12:32:24;7.30;99.90
12370;DHT22;6249;52.128;9.986;2023-03-14T12:35:47;7.10;99.90
12370;DHT22;6249;52.128;9.986;2023-03-14T12:42:57;6.90;99.90
12370;DHT22;6249;52.128;9.986;2023-03-14T12:46:28;6.80;99.90
12370;DHT22;6249;52.128;9.986;2023-03-14T12:49:51;6.60;99.90
12370;DHT22;6249;52.128;9.986;2023-03-14T12:53:33;6.50;99.90
12370;DHT22;6249;52.128;9.986;2023-03-14T13:00:39;6.30;99.90
12370;DHT22;6249;52.128;9.986;2023-03-14T13:04:09;6.10;99.90
12370;DHT22;6249;52.128;9.986;2023-03-14T13:11:07;6.10;99.90
12370;DHT22;6249;52.128;9.986;2023-03-14T13:14:31;6.10;99.90
12370;DHT22;6249;52.128;9.986;2023-03-14T13:17:54;6.10;99.90
12370;DHT22;6249;52.128;9.986;2023-03-14T13:21:21;6.20;99.90
12370;DHT22;6249;52.128;9.986;2023-03-14T13:24:44;6.10;99.90
12370;DHT22;6249;52.128;9.986;2023-03-14T13:28:05;5.90;99.90
12370;DHT22;6249;52.128;9.986;2023-03-14T13:31:26;5.90;99.90
12370;DHT22;6249;52.128;9.986;2023-03-14T13:34:47;5.90;99.90
12370;DHT22;6249;52.128;9.986;2023-03-14T13:38:17;5.90;99.90
12370;DHT22;6249;52.128;9.986;2023-03-14T13:41:41;6.00;99.90
12370;DHT22;6249;52.128;9.986;2023-03-14T13:45:05;6.00;99.90
12370;DHT22;6249;52.128;9.986;2023-03-14T13:48:28;6.10;99.90
12370;DHT22;6249;52.128;9.986;2023-03-14T13:51:52;6.00;99.90
12370;DHT22;6249;52.128;9.986;2023-03-14T13:55:17;6.10;99.90
12370;DHT22;6249;52.128;9.986;2023-03-14T13:58:39;6.00;99.90
12370;DHT22;6249;52.128;9.986;2023-03-14T14:02:06;6.10;99.90
12370;DHT22;6249;52.128;9.986;2023-03-14T14:05:29;6.20;99.90
12370;DHT22;6249;52.128;9.986;2023-03-14T14:08:51;6.30;99.90
12370;DHT22;6249;52.128;9.986;2023-03-14T14:15:51;6.20;99.90
12370;DHT22;6249;52.128;9.986;2023-03-14T14:19:16;6.20;99.90
12370;DHT22;6249;52.128;9.986;2023-03-14T14:22:38;6.20;99.90
12370;DHT22;6249;52.128;9.986;2023-03-14T14:26:00;6.20;99.90
12370;DHT22;6249;52.128;9.986;2023-03-14T14:29:32;6.30;99.90
12370;DHT22;6249;52.128;9.986;2023-03-14T14:33:09;6.30;99.90
12370;DHT22;6249;52.128;9.986;2023-03-14T14:36:36;6.40;99.90
12370;DHT22;6249;52.128;9.986;2023-03-14T14:43:32;6.40;99.90
12370;DHT22;6249;52.128;9.986;2023-03-14T14:46:57;6.30;99.90
12370;DHT22;6249;52.128;9.986;2023-03-14T14:54:03;6.20;99.90
12370;DHT22;6249;52.128;9.986;2023-03-14T14:57:27;6.00;99.90
12370;DHT22;6249;52.128;9.986;2023-03-14T15:01:02;5.90;99.90
12370;DHT22;6249;52.128;9.986;2023-03-14T15:04:24;5.70;99.90
12370;DHT22;6249;52.128;9.986;2023-03-14T15:07:45;5.70;99.90
12370;DHT22;6249;52.128;9.986;2023-03-14T15:11:21;5.70;99.90
12370;DHT22;6249;52.128;9.986;2023-03-14T15:14:43;5.70;99.90
12370;DHT22;6249;52.128;9.986;2023-03-14T15:18:13;5.70;99.90
12370;DHT22;6249;52.128;9.986;2023-03-14T15:21:34;5.70;99.90
12370;DHT22;6249;52.128;9.986;2023-03-14T15:24:55;5.80;99.90
12370;DHT22;6249;52.128;9.986;2023-03-14T15:28:24;5.80;99.90
12370;DHT22;6249;52.128;9.986;2023-03-14T15:31:45;5.80;99.90
12370;DHT22;6249;52.128;9.986;2023-03-14T15:35:06;5.90;99.90
12370;DHT22;6249;52.128;9.986;2023-03-14T15:38:27;5.90;99.90
12370;DHT22;6249;52.128;9.986;2023-03-14T15:41:50;6.00;99.90
12370;DHT22;6249;52.128;9.986;2023-03-14T15:45:18;6.10;99.90
12370;DHT22;6249;52.128;9.986;2023-03-14T15:48:44;6.30;99.90
12370;DHT22;6249;52.128;9.986;2023-03-14T15:52:07;6.50;99.90
12370;DHT22;6249;52.128;9.986;2023-03-14T15:55:28;6.60;99.90
12370;DHT22;6249;52.128;9.986;2023-03-14T15:58:49;6.50;99.90
12370;DHT22;6249;52.128;9.986;2023-03-14T16:02:12;6.50;99.90
12370;DHT22;6249;52.128;9.986;2023-03-14T16:05:32;6.50;99.90
12370;DHT22;6249;52.128;9.986;2023-03-14T16:08:53;6.30;99.90
12370;DHT22;6249;52.128;9.986;2023-03-14T16:12:16;6.30;99.90
12370;DHT22;6249;52.128;9.986;2023-03-14T16:15:39;6.20;99.90
12370;DHT22;6249;52.128;9.986;2023-03-14T16:19:02;6.10;99.90
12370;DHT22;6249;52.128;9.986;2023-03-14T16:22:27;6.10;99.90
12370;DHT22;6249;52.128;9.986;2023-03-14T16:25:52;6.10;99.90
12370;DHT22;6249;52.128;9.986;2023-03-14T16:29:13;6.00;99.90
12370;DHT22;6249;52.128;9.986;2023-03-14T16:32:34;6.10;99.90
12370;DHT22;6249;52.128;9.986;2023-03-14T16:36:02;6.10;99.90
12370;DHT22;6249;52.128;9.986;2023-03-14T16:39:27;6.10;99.90
12370;DHT22;6249;52.128;9.986;2023-03-14T16:42:53;6.30;99.90
12370;DHT22;6249;52.128;9.986;2023-03-14T16:46:17;7.20;99.90
12370;DHT22;6249;52.128;9.986;2023-03-14T16:49:38;8.00;99.90
12370;DHT22;6249;52.128;9.986;2023-03-14T16:52:58;8.20;99.50
12370;DHT22;6249;52.128;9.986;2023-03-14T16:56:19;7.80;99.90
12370;DHT22;6249;52.128;9.986;2023-03-14T16:59:40;7.40;99.90
12370;DHT22;6249;52.128;9.986;2023-03-14T17:03:01;7.10;99.90
12370;DHT22;6249;52.128;9.986;2023-03-14T17:06:26;6.90;99.90
12370;DHT22;6249;52.128;9.986;2023-03-14T17:09:52;6.70;99.90
12370;DHT22;6249;52.128;9.986;2023-03-14T17:13:16;6.60;99.90
12370;DHT22;6249;52.128;9.986;2023-03-14T17:16:40;6.40;99.90
12370;DHT22;6249;52.128;9.986;2023-03-14T17:20:02;6.30;99.90
12370;DHT22;6249;52.128;9.986;2023-03-14T17:23:24;6.20;99.90
12370;DHT22;6249;52.128;9.986;2023-03-14T17:26:45;6.20;99.90
12370;DHT22;6249;52.128;9.986;2023-03-14T17:30:06;6.10;99.90
12370;DHT22;6249;52.128;9.986;2023-03-14T17:33:27;6.10;99.90
12370;DHT22;6249;52.128;9.986;2023-03-14T17:36:47;6.10;99.90
12370;DHT22;6249;52.128;9.986;2023-03-14T17:40:08;5.90;99.90
12370;DHT22;6249;52.128;9.986;2023-03-14T17:43:29;5.90;99.90
12370;DHT22;6249;52.128;9.986;2023-03-14T17:46:50;5.80;99.90
12370;DHT22;6249;52.128;9.986;2023-03-14T17:50:11;5.70;99.90
12370;DHT22;6249;52.128;9.986;2023-03-14T17:53:32;5.60;99.90
12370;DHT22;6249;52.128;9.986;2023-03-14T17:56:55;5.70;99.90
12370;DHT22;6249;52.128;9.986;2023-03-14T18:00:18;5.80;99.90
12370;DHT22;6249;52.128;9.986;2023-03-14T18:03:39;5.80;99.90
12370;DHT22;6249;52.128;9.986;2023-03-14T18:07:03;5.80;99.90
12370;DHT22;6249;52.128;9.986;2023-03-14T18:10:26;5.70;99.90
12370;DHT22;6249;52.128;9.986;2023-03-14T18:13:47;5.70;99.90
12370;DHT22;6249;52.128;9.986;2023-03-14T18:17:07;5.70;99.90
12370;DHT22;6249;52.128;9.986;2023-03-14T18:20:31;5.70;99.90
12370;DHT22;6249;52.128;9.986;2023-03-14T18:23:54;5.70;99.90
12370;DHT22;6249;52.128;9.986;2023-03-14T18:27:23;5.60;99.90
12370;DHT22;6249;52.128;9.986;2023-03-14T18:30:46;5.50;99.90
12370;DHT22;6249;52.128;9.986;2023-03-14T18:34:11;5.40;99.90
12370;DHT22;6249;52.128;9.986;2023-03-14T18:37:32;5.30;99.90
12370;DHT22;6249;52.128;9.986;2023-03-14T18:40:52;5.30;99.90
12370;DHT22;6249;52.128;9.986;2023-03-14T18:44:13;5.20;99.90
12370;DHT22;6249;52.128;9.986;2023-03-14T18:47:34;5.20;99.90
12370;DHT22;6249;52.128;9.986;2023-03-14T18:50:59;5.10;99.90
12370;DHT22;6249;52.128;9.986;2023-03-14T18:54:23;4.90;99.90
12370;DHT22;6249;52.128;9.986;2023-03-14T18:57:46;4.90;99.60
12370;DHT22;6249;52.128;9.986;2023-03-14T19:01:06;5.00;99.50
12370;DHT22;6249;52.128;9.986;2023-03-14T19:04:30;4.90;99.20
12370;DHT22;6249;52.128;9.986;2023-03-14T19:07:53;4.90;99.50
12370;DHT22;6249;52.128;9.986;2023-03-14T19:11:17;4.80;99.90
12370;DHT22;6249;52.128;9.986;2023-03-14T19:14:40;4.70;99.90
12370;DHT22;6249;52.128;9.986;2023-03-14T19:18:00;4.70;99.90
12370;DHT22;6249;52.128;9.986;2023-03-14T19:21:33;4.70;99.90
12370;DHT22;6249;52.128;9.986;2023-03-14T19:24:54;4.60;99.90
12370;DHT22;6249;52.128;9.986;2023-03-14T19:28:17;4.60;99.90
12370;DHT22;6249;52.128;9.986;2023-03-14T19:31:40;4.60;99.90
12370;DHT22;6249;52.128;9.986;2023-03-14T19:35:01;4.50;99.90
12370;DHT22;6249;52.128;9.986;2023-03-14T19:38:21;4.50;99.90
12370;DHT22;6249;52.128;9.986;2023-03-14T19:41:44;4.50;99.90
12370;DHT22;6249;52.128;9.986;2023-03-14T19:45:05;4.50;99.90
12370;DHT22;6249;52.128;9.986;2023-03-14T19:48:29;4.40;99.90
12370;DHT22;6249;52.128;9.986;2023-03-14T19:51:52;4.40;99.90
12370;DHT22;6249;52.128;9.986;2023-03-14T19:55:13;4.40;99.90
12370;DHT22;6249;52.128;9.986;2023-03-14T19:58:37;4.30;99.90
12370;DHT22;6249;52.128;9.986;2023-03-14T20:02:01;4.20;99.90
12370;DHT22;6249;52.128;9.986;2023-03-14T20:05:22;4.20;99.90
12370;DHT22;6249;52.128;9.986;2023-03-14T20:08:45;4.20;99.90
12370;DHT22;6249;52.128;9.986;2023-03-14T20:12:08;4.20;99.90
12370;DHT22;6249;52.128;9.986;2023-03-14T20:15:33;4.30;99.90
12370;DHT22;6249;52.128;9.986;2023-03-14T20:18:54;4.10;99.90
12370;DHT22;6249;52.128;9.986;2023-03-14T20:22:15;4.10;99.90
12370;DHT22;6249;52.128;9.986;2023-03-14T20:25:35;4.00;99.90
12370;DHT22;6249;52.128;9.986;2023-03-14T20:28:57;4.10;99.90
12370;DHT22;6249;52.128;9.986;2023-03-14T20:32:19;4.00;99.90
12370;DHT22;6249;52.128;9.986;2023-03-14T20:35:43;3.90;99.90
12370;DHT22;6249;52.128;9.986;2023-03-14T20:39:04;4.00;99.90
12370;DHT22;6249;52.128;9.986;2023-03-14T20:42:25;3.90;99.90
12370;DHT22;6249;52.128;9.986;2023-03-14T20:45:54;4.00;99.90
12370;DHT22;6249;52.128;9.986;2023-03-14T20:49:15;3.90;99.90
12370;DHT22;6249;52.128;9.986;2023-03-14T20:52:36;4.00;99.90
12370;DHT22;6249;52.128;9.986;2023-03-14T20:55:57;4.00;99.90
12370;DHT22;6249;52.128;9.986;2023-03-14T20:59:18;4.00;99.90
12370;DHT22;6249;52.128;9.986;2023-03-14T21:02:42;3.80;99.90
12370;DHT22;6249;52.128;9.986;2023-03-14T21:06:03;3.90;99.90
12370;DHT22;6249;52.128;9.986;2023-03-14T21:09:25;3.90;99.90
12370;DHT22;6249;52.128;9.986;2023-03-14T21:12:46;3.90;99.90
12370;DHT22;6249;52.128;9.986;2023-03-14T21:16:07;3.90;99.90
12370;DHT22;6249;52.128;9.986;2023-03-14T21:19:27;3.90;99.90
12370;DHT22;6249;52.128;9.986;2023-03-14T21:22:51;3.90;99.90
12370;DHT22;6249;52.128;9.986;2023-03-14T21:26:12;3.80;99.90
12370;DHT22;6249;52.128;9.986;2023-03-14T21:29:35;3.80;99.90
12370;DHT22;6249;52.128;9.986;2023-03-14T21:32:56;3.90;99.90
12370;DHT22;6249;52.128;9.986;2023-03-14T21:36:17;3.80;99.90
12370;DHT22;6249;52.128;9.986;2023-03-14T21:39:38;3.70;99.90
12370;DHT22;6249;52.128;9.986;2023-03-14T21:42:59;3.70;99.90
12370;DHT22;6249;52.128;9.986;2023-03-14T21:46:23;3.70;99.90
12370;DHT22;6249;52.128;9.986;2023-03-14T21:49:45;3.80;99.90
12370;DHT22;6249;52.128;9.986;2023-03-14T21:53:06;3.70;99.90
12370;DHT22;6249;52.128;9.986;2023-03-14T21:56:26;3.60;99.90
12370;DHT22;6249;52.128;9.986;2023-03-14T21:59:49;3.70;99.90
12370;DHT22;6249;52.128;9.986;2023-03-14T22:03:12;3.80;99.90
12370;DHT22;6249;52.128;9.986;2023-03-14T22:06:35;3.60;99.90
12370;DHT22;6249;52.128;9.986;2023-03-14T22:09:58;3.60;99.90
12370;DHT22;6249;52.128;9.986;2023-03-14T22:13:21;3.70;99.90
12370;DHT22;6249;52.128;9.986;2023-03-14T22:16:42;3.60;99.90
12370;DHT22;6249;52.128;9.986;2023-03-14T22:20:03;3.70;99.90
12370;DHT22;6249;52.128;9.986;2023-03-14T22:23:25;3.70;99.90
12370;DHT22;6249;52.128;9.986;2023-03-14T22:26:50;3.60;99.90
12370;DHT22;6249;52.128;9.986;2023-03-14T22:30:14;3.70;99.90
12370;DHT22;6249;52.128;9.986;2023-03-14T22:33:37;3.50;99.90
12370;DHT22;6249;52.128;9.986;2023-03-14T22:37:03;3.50;99.90
12370;DHT22;6249;52.128;9.986;2023-03-14T22:40:24;3.40;99.90
12370;DHT22;6249;52.128;9.986;2023-03-14T22:43:47;3.50;99.90
12370;DHT22;6249;52.128;9.986;2023-03-14T22:47:09;3.50;99.90
12370;DHT22;6249;52.128;9.986;2023-03-14T22:50:29;3.40;99.90
12370;DHT22;6249;52.128;9.986;2023-03-14T22:53:50;3.50;99.90
12370;DHT22;6249;52.128;9.986;2023-03-14T22:57:13;3.40;99.90
12370;DHT22;6249;52.128;9.986;2023-03-14T23:00:33;3.30;99.90
12370;DHT22;6249;52.128;9.986;2023-03-14T23:03:54;3.20;99.90
12370;DHT22;6249;52.128;9.986;2023-03-14T23:07:17;3.20;99.90
12370;DHT22;6249;52.128;9.986;2023-03-14T23:10:37;3.10;99.90
12370;DHT22;6249;52.128;9.986;2023-03-14T23:13:59;3.10;99.90
12370;DHT22;6249;52.128;9.986;2023-03-14T23:17:20;2.90;99.90
12370;DHT22;6249;52.128;9.986;2023-03-14T23:20:41;2.70;99.90